createdAt,value
2024-01-16T00:00:06.608Z,6.87
2024-01-16T00:01:38.708Z,6.84
2024-01-16T00:03:10.313Z,6.81
2024-01-16T00:04:42.201Z,6.84
2024-01-16T00:06:14.048Z,6.83
2024-01-16T00:07:45.629Z,6.89
2024-01-16T00:09:17.218Z,6.95
2024-01-16T00:10:48.744Z,7.02
2024-01-16T00:12:20.297Z,7.06
2024-01-16T00:13:51.929Z,7.06
2024-01-16T00:15:23.604Z,7.12
2024-01-16T00:16:55.120Z,7.13
2024-01-16T00:18:27.013Z,7.15
2024-01-16T00:20:02.016Z,7.18
2024-01-16T00:21:33.808Z,7.21
2024-01-16T00:23:05.394Z,7.24
2024-01-16T00:24:37.094Z,7.27
2024-01-16T00:26:08.758Z,7.29
2024-01-16T00:27:40.498Z,7.33
2024-01-16T00:29:13.848Z,7.38
2024-01-16T00:30:45.862Z,7.36
2024-01-16T00:32:17.764Z,7.38
2024-01-16T00:33:49.998Z,7.40
2024-01-16T00:35:21.688Z,7.40
2024-01-16T00:36:53.462Z,7.42
2024-01-16T00:38:25.201Z,7.46
2024-01-16T00:39:57.094Z,7.50
2024-01-16T00:41:28.742Z,7.51
2024-01-16T00:43:00.364Z,7.46
2024-01-16T00:44:32.011Z,7.44
2024-01-16T00:46:04.147Z,7.48
2024-01-16T00:47:35.832Z,7.48
2024-01-16T00:49:09.056Z,7.51
2024-01-16T00:50:40.818Z,7.52
2024-01-16T00:52:12.643Z,7.55
2024-01-16T00:53:44.749Z,7.57
2024-01-16T00:55:16.472Z,7.64
2024-01-16T00:56:48.162Z,7.61
2024-01-16T00:58:19.837Z,7.62
2024-01-16T00:59:51.554Z,7.64
2024-01-16T01:01:23.393Z,7.67
2024-01-16T01:02:55.705Z,7.64
2024-01-16T01:04:27.461Z,7.65
2024-01-16T01:05:59.480Z,7.62
2024-01-16T01:07:31.124Z,7.61
2024-01-16T01:09:04.293Z,7.62
2024-01-16T01:10:36.165Z,7.52
2024-01-16T01:12:07.798Z,7.46
2024-01-16T01:13:39.626Z,7.47
2024-01-16T01:15:11.908Z,7.48
2024-01-16T01:16:43.552Z,7.55
2024-01-16T01:18:15.324Z,7.60
2024-01-16T01:19:47.475Z,7.67
2024-01-16T01:21:19.064Z,7.68
2024-01-16T01:22:50.864Z,7.69
2024-01-16T01:24:22.459Z,7.71
2024-01-16T01:25:54.026Z,7.75
2024-01-16T01:27:26.322Z,7.79
2024-01-16T01:28:57.859Z,7.86
2024-01-16T01:30:29.595Z,7.87
2024-01-16T01:32:01.308Z,7.88
2024-01-16T01:33:32.951Z,7.91
2024-01-16T01:35:04.917Z,7.94
2024-01-16T01:36:36.490Z,7.99
2024-01-16T01:38:09.600Z,8.02
2024-01-16T01:39:41.266Z,7.99
2024-01-16T01:41:16.114Z,7.98
2024-01-16T01:42:47.741Z,7.98
2024-01-16T01:44:19.264Z,7.97
2024-01-16T01:46:09.593Z,7.94
2024-01-16T01:47:41.346Z,7.92
2024-01-16T01:49:13.642Z,7.90
2024-01-16T01:50:45.401Z,7.92
2024-01-16T01:52:17.534Z,7.91
2024-01-16T01:53:50.118Z,7.89
2024-01-16T01:55:21.727Z,7.87
2024-01-16T01:56:53.380Z,7.88
2024-01-16T01:58:25.258Z,7.86
2024-01-16T01:59:57.012Z,7.89
2024-01-16T02:01:29.280Z,7.89
2024-01-16T02:03:01.483Z,7.88
2024-01-16T02:04:33.381Z,7.86
2024-01-16T02:06:05.181Z,7.87
2024-01-16T02:07:36.934Z,7.89
2024-01-16T02:09:09.118Z,7.89
2024-01-16T02:10:40.657Z,7.89
2024-01-16T02:12:12.294Z,7.90
2024-01-16T02:13:43.972Z,7.88
2024-01-16T02:15:15.654Z,7.87
2024-01-16T02:16:47.164Z,7.88
2024-01-16T02:18:19.110Z,7.90
2024-01-16T02:19:50.981Z,7.92
2024-01-16T02:21:22.927Z,7.98
2024-01-16T02:22:54.566Z,8.02
2024-01-16T02:24:26.134Z,8.07
2024-01-16T02:25:57.967Z,8.09
2024-01-16T02:27:29.543Z,8.08
2024-01-16T02:29:05.830Z,8.07
2024-01-16T02:30:37.498Z,8.05
2024-01-16T02:32:09.394Z,8.06
2024-01-16T02:33:41.166Z,8.03
2024-01-16T02:35:12.822Z,7.96
2024-01-16T02:36:44.715Z,7.96
2024-01-16T02:38:16.469Z,7.94
2024-01-16T02:39:48.043Z,7.96
2024-01-16T02:41:19.803Z,7.96
2024-01-16T02:42:51.455Z,7.91
2024-01-16T02:44:23.190Z,7.85
2024-01-16T02:45:55.202Z,7.80
2024-01-16T02:47:26.858Z,7.73
2024-01-16T02:48:58.523Z,7.70
2024-01-16T02:50:30.112Z,7.72
2024-01-16T02:52:01.698Z,7.71
2024-01-16T02:53:33.331Z,7.72
2024-01-16T02:55:06.067Z,7.72
2024-01-16T02:56:37.768Z,7.76
2024-01-16T02:58:09.324Z,7.79
2024-01-16T02:59:40.955Z,7.85
2024-01-16T03:01:12.763Z,7.87
2024-01-16T03:02:45.277Z,7.89
2024-01-16T03:04:16.913Z,7.92
2024-01-16T03:05:48.761Z,7.90
2024-01-16T03:07:20.489Z,7.92
2024-01-16T03:08:52.591Z,7.95
2024-01-16T03:10:24.163Z,7.97
2024-01-16T03:11:55.898Z,7.96
2024-01-16T03:13:27.543Z,7.95
2024-01-16T03:14:59.038Z,7.92
2024-01-16T03:16:31.339Z,7.87
2024-01-16T03:18:03.107Z,7.85
2024-01-16T03:19:35.227Z,7.83
2024-01-16T03:21:07.082Z,7.83
2024-01-16T03:22:39.232Z,7.86
2024-01-16T03:24:11.973Z,7.86
2024-01-16T03:25:43.950Z,7.84
2024-01-16T03:27:15.565Z,7.86
2024-01-16T03:28:47.160Z,7.83
2024-01-16T03:30:18.980Z,7.81
2024-01-16T03:31:50.747Z,7.81
2024-01-16T03:33:22.790Z,7.77
2024-01-16T03:34:54.427Z,7.72
2024-01-16T03:36:25.972Z,7.70
2024-01-16T03:37:57.627Z,7.64
2024-01-16T03:39:29.352Z,7.63
2024-01-16T03:41:00.876Z,7.62
2024-01-16T03:42:32.473Z,7.64
2024-01-16T03:44:04.117Z,7.63
2024-01-16T03:45:35.706Z,7.64
2024-01-16T03:47:07.789Z,7.63
2024-01-16T03:48:39.502Z,7.59
2024-01-16T03:50:11.547Z,7.57
2024-01-16T03:51:47.659Z,7.57
2024-01-16T03:53:19.400Z,7.58
2024-01-16T03:54:51.153Z,7.56
2024-01-16T03:56:23.220Z,7.57
2024-01-16T03:57:54.968Z,7.56
2024-01-16T03:59:26.601Z,7.55
2024-01-16T04:00:58.390Z,7.56
2024-01-16T04:02:30.249Z,7.54
2024-01-16T04:04:01.907Z,7.53
2024-01-16T04:05:33.534Z,7.53
2024-01-16T04:07:05.563Z,7.55
2024-01-16T04:08:37.150Z,7.53
2024-01-16T04:10:08.890Z,7.51
2024-01-16T04:11:40.413Z,7.50
2024-01-16T04:13:11.987Z,7.49
2024-01-16T04:14:43.700Z,7.51
2024-01-16T04:16:15.295Z,7.53
2024-01-16T04:17:46.896Z,7.55
2024-01-16T04:19:18.633Z,7.61
2024-01-16T04:20:51.322Z,7.63
2024-01-16T04:22:22.968Z,7.69
2024-01-16T04:23:54.650Z,7.72
2024-01-16T04:25:26.972Z,7.67
2024-01-16T04:26:58.548Z,7.64
2024-01-16T04:28:30.624Z,7.59
2024-01-16T04:30:02.397Z,7.52
2024-01-16T04:31:35.049Z,7.45
2024-01-16T04:33:06.774Z,7.34
2024-01-16T04:34:38.451Z,7.26
2024-01-16T04:36:10.916Z,7.17
2024-01-16T04:37:42.469Z,7.11
2024-01-16T04:39:14.959Z,7.02
2024-01-16T04:40:46.679Z,6.97
2024-01-16T04:42:19.259Z,6.91
2024-01-16T04:43:54.229Z,6.85
2024-01-16T04:45:25.820Z,6.78
2024-01-16T04:46:57.430Z,6.73
2024-01-16T04:48:29.018Z,6.71
2024-01-16T04:50:00.598Z,6.68
2024-01-16T04:51:32.212Z,6.67
2024-01-16T04:53:03.865Z,6.63
2024-01-16T04:54:35.385Z,6.61
2024-01-16T04:56:06.965Z,6.61
2024-01-16T04:57:38.614Z,6.59
2024-01-16T04:59:10.194Z,6.51
2024-01-16T05:00:41.797Z,6.51
2024-01-16T05:02:15.643Z,6.48
2024-01-16T05:03:47.394Z,6.48
2024-01-16T05:05:19.025Z,6.45
2024-01-16T05:06:51.949Z,6.40
2024-01-16T05:08:24.908Z,6.41
2024-01-16T05:09:56.962Z,6.41
2024-01-16T05:11:28.654Z,6.39
2024-01-16T05:13:00.278Z,6.35
2024-01-16T05:14:32.069Z,6.30
2024-01-16T05:16:04.319Z,6.22
2024-01-16T05:17:35.995Z,6.18
2024-01-16T05:19:07.675Z,6.12
2024-01-16T05:20:39.419Z,6.16
2024-01-16T05:22:11.688Z,6.14
2024-01-16T05:23:43.247Z,6.10
2024-01-16T05:25:14.976Z,6.11
2024-01-16T05:26:46.586Z,6.12
2024-01-16T05:28:18.141Z,6.11
2024-01-16T05:29:49.875Z,6.03
2024-01-16T05:31:21.957Z,6.01
2024-01-16T05:32:54.395Z,5.99
2024-01-16T05:34:27.168Z,5.98
2024-01-16T05:35:59.019Z,5.94
2024-01-16T05:37:30.873Z,5.89
2024-01-16T05:39:03.118Z,5.86
2024-01-16T05:40:34.688Z,5.86
2024-01-16T05:42:06.511Z,5.85
2024-01-16T05:43:38.357Z,5.81
2024-01-16T05:45:10.172Z,5.74
2024-01-16T05:46:42.325Z,5.70
2024-01-16T05:48:13.971Z,5.72
2024-01-16T05:49:46.246Z,5.72
2024-01-16T05:51:18.152Z,5.68
2024-01-16T05:52:50.214Z,5.66
2024-01-16T05:54:21.781Z,5.65
2024-01-16T05:55:55.067Z,5.66
2024-01-16T05:57:28.848Z,5.67
2024-01-16T05:59:00.809Z,5.67
2024-01-16T06:00:34.711Z,5.65
2024-01-16T06:02:06.763Z,5.63
2024-01-16T06:03:38.361Z,5.56
2024-01-16T06:05:10.074Z,5.52
2024-01-16T06:06:45.883Z,5.50
2024-01-16T06:08:17.769Z,5.46
2024-01-16T06:09:49.507Z,5.43
2024-01-16T06:11:30.545Z,5.39
2024-01-16T06:13:02.088Z,5.35
2024-01-16T06:14:34.426Z,5.32
2024-01-16T06:16:11.719Z,5.25
2024-01-16T06:17:45.611Z,5.24
2024-01-16T06:19:17.704Z,5.20
2024-01-16T06:20:50.127Z,5.20
2024-01-16T06:22:21.922Z,5.20
2024-01-16T06:23:53.696Z,5.13
2024-01-16T06:25:25.525Z,5.06
2024-01-16T06:26:57.348Z,4.95
2024-01-16T06:28:29.395Z,4.90
2024-01-16T06:30:01.747Z,4.83
2024-01-16T06:31:33.787Z,4.74
2024-01-16T06:33:06.359Z,4.67
2024-01-16T06:34:38.188Z,4.66
2024-01-16T06:36:10.136Z,4.66
2024-01-16T06:37:41.792Z,4.65
2024-01-16T06:39:15.200Z,4.61
2024-01-16T06:40:47.093Z,4.61
2024-01-16T06:42:18.977Z,4.55
2024-01-16T06:43:50.813Z,4.53
2024-01-16T06:45:23.023Z,4.47
2024-01-16T06:46:54.818Z,4.41
2024-01-16T06:48:26.546Z,4.42
2024-01-16T06:49:58.750Z,4.36
2024-01-16T06:51:30.529Z,4.29
2024-01-16T06:53:03.837Z,4.31
2024-01-16T06:54:35.617Z,4.27
2024-01-16T06:56:08.059Z,4.26
2024-01-16T06:57:39.837Z,4.25
2024-01-16T06:59:12.476Z,4.29
2024-01-16T07:00:44.529Z,4.29
2024-01-16T07:02:16.484Z,4.30
2024-01-16T07:03:51.386Z,4.33
2024-01-16T07:05:23.677Z,4.40
2024-01-16T07:06:55.497Z,4.42
2024-01-16T07:08:27.220Z,4.42
2024-01-16T07:09:58.987Z,4.48
2024-01-16T07:11:30.786Z,4.50
2024-01-16T07:13:05.969Z,4.52
2024-01-16T07:14:39.403Z,4.52
2024-01-16T07:16:12.288Z,4.52
2024-01-16T07:17:44.562Z,4.51
2024-01-16T07:19:16.392Z,4.47
2024-01-16T07:20:48.353Z,4.45
2024-01-16T07:22:20.278Z,4.34
2024-01-16T07:23:52.057Z,4.26
2024-01-16T07:25:23.938Z,4.12
2024-01-16T07:26:56.151Z,4.05
2024-01-16T07:28:28.059Z,4.00
2024-01-16T07:30:00.612Z,3.99
2024-01-16T07:31:32.956Z,4.01
2024-01-16T07:33:05.552Z,4.04
2024-01-16T07:34:37.282Z,4.10
2024-01-16T07:36:09.688Z,4.16
2024-01-16T07:37:41.516Z,4.20
2024-01-16T07:39:13.446Z,4.24
2024-01-16T07:40:45.027Z,4.29
2024-01-16T07:42:16.818Z,4.37
2024-01-16T07:43:50.172Z,4.42
2024-01-16T07:45:22.014Z,4.48
2024-01-16T07:46:56.427Z,4.48
2024-01-16T07:48:28.258Z,4.39
2024-01-16T07:50:00.953Z,4.33
2024-01-16T07:51:32.567Z,4.29
2024-01-16T07:53:04.276Z,4.27
2024-01-16T07:54:36.583Z,4.27
2024-01-16T07:56:08.727Z,4.24
2024-01-16T07:57:40.310Z,4.20
2024-01-16T07:59:12.153Z,4.21
2024-01-16T08:00:44.335Z,4.20
2024-01-16T08:02:16.778Z,4.23
2024-01-16T08:03:48.779Z,4.22
2024-01-16T08:05:23.212Z,4.21
2024-01-16T08:06:55.443Z,4.14
2024-01-16T08:08:27.368Z,4.09
2024-01-16T08:09:59.353Z,4.14
2024-01-16T08:11:32.818Z,4.17
2024-01-16T08:13:04.902Z,4.24
2024-01-16T08:14:36.521Z,4.28
2024-01-16T08:16:11.567Z,4.24
2024-01-16T08:17:44.355Z,4.25
2024-01-16T08:19:16.325Z,4.28
2024-01-16T08:20:48.359Z,4.32
2024-01-16T08:22:20.579Z,4.30
2024-01-16T08:23:52.452Z,4.27
2024-01-16T08:25:24.147Z,4.26
2024-01-16T08:26:58.658Z,4.26
2024-01-16T08:28:30.368Z,4.25
2024-01-16T08:30:02.134Z,4.23
2024-01-16T08:31:33.643Z,4.20
2024-01-16T08:33:05.583Z,4.18
2024-01-16T08:34:37.489Z,4.17
2024-01-16T08:36:09.824Z,4.14
2024-01-16T08:37:41.459Z,4.13
2024-01-16T08:39:14.747Z,4.16
2024-01-16T08:40:46.458Z,4.20
2024-01-16T08:42:19.374Z,4.20
2024-01-16T08:43:52.508Z,4.13
2024-01-16T08:45:24.256Z,4.05
2024-01-16T08:46:56.134Z,4.05
2024-01-16T08:48:28.085Z,4.00
2024-01-16T08:50:00.238Z,3.98
2024-01-16T08:51:32.103Z,4.04
2024-01-16T08:53:03.928Z,4.03
2024-01-16T08:54:35.700Z,3.98
2024-01-16T08:56:10.649Z,3.93
2024-01-16T08:57:43.014Z,3.94
2024-01-16T08:59:14.960Z,3.99
2024-01-16T09:00:47.350Z,4.01
2024-01-16T09:02:19.289Z,4.04
2024-01-16T09:03:51.207Z,4.05
2024-01-16T09:05:26.798Z,4.08
2024-01-16T09:06:58.653Z,4.14
2024-01-16T09:08:31.035Z,4.19
2024-01-16T09:10:02.714Z,4.21
2024-01-16T09:11:35.084Z,4.22
2024-01-16T09:13:06.815Z,4.22
2024-01-16T09:14:38.526Z,4.25
2024-01-16T09:16:10.801Z,4.25
2024-01-16T09:17:43.822Z,4.30
2024-01-16T09:19:15.611Z,4.33
2024-01-16T09:20:47.994Z,4.35
2024-01-16T09:22:19.917Z,4.39
2024-01-16T09:23:52.244Z,4.37
2024-01-16T09:25:26.161Z,4.37
2024-01-16T09:26:59.583Z,4.36
2024-01-16T09:28:31.242Z,4.37
2024-01-16T09:30:02.971Z,4.35
2024-01-16T09:31:34.602Z,4.37
2024-01-16T09:33:08.634Z,4.40
2024-01-16T09:34:41.241Z,4.47
2024-01-16T09:36:13.067Z,4.50
2024-01-16T09:37:45.005Z,4.50
2024-01-16T09:39:19.342Z,4.55
2024-01-16T09:40:53.636Z,4.60
2024-01-16T09:42:25.832Z,4.63
2024-01-16T09:43:57.806Z,4.59
2024-01-16T09:45:29.833Z,4.61
2024-01-16T09:47:01.542Z,4.60
2024-01-16T09:48:33.766Z,4.62
2024-01-16T09:50:05.986Z,4.64
2024-01-16T09:51:37.652Z,4.65
2024-01-16T09:53:09.212Z,4.69
2024-01-16T09:54:40.883Z,4.75
2024-01-16T09:56:16.369Z,4.79
2024-01-16T09:57:48.145Z,4.85
2024-01-16T09:59:19.921Z,4.90
2024-01-16T10:00:52.169Z,4.92
2024-01-16T10:02:23.876Z,4.97
2024-01-16T10:03:55.913Z,5.07
2024-01-16T10:05:27.642Z,5.11
2024-01-16T10:06:59.319Z,5.14
2024-01-16T10:08:31.457Z,5.22
2024-01-16T10:10:03.115Z,5.23
2024-01-16T10:11:35.650Z,5.28
2024-01-16T10:13:07.313Z,5.34
2024-01-16T10:14:40.488Z,5.38
2024-01-16T10:16:12.079Z,5.42
2024-01-16T10:17:43.762Z,5.44
2024-01-16T10:19:15.479Z,5.43
2024-01-16T10:20:47.212Z,5.41
2024-01-16T10:22:26.850Z,5.42
2024-01-16T10:24:01.040Z,5.50
2024-01-16T10:25:32.716Z,5.59
2024-01-16T10:27:04.624Z,5.68
2024-01-16T10:28:36.924Z,5.77
2024-01-16T10:30:08.905Z,5.77
2024-01-16T10:31:41.666Z,5.85
2024-01-16T10:33:16.704Z,5.93
2024-01-16T10:34:48.765Z,6.01
2024-01-16T10:36:22.031Z,6.02
2024-01-16T10:37:54.947Z,6.02
2024-01-16T10:39:35.572Z,6.05
2024-01-16T10:41:19.545Z,6.06
2024-01-16T10:43:00.908Z,6.11
2024-01-16T10:44:33.455Z,6.23
2024-01-16T10:46:24.500Z,6.26
2024-01-16T10:48:04.655Z,6.28
2024-01-16T10:49:43.150Z,6.27
2024-01-16T10:51:18.079Z,6.28
2024-01-16T10:52:53.749Z,6.29
2024-01-16T10:54:25.339Z,6.28
2024-01-16T10:55:56.908Z,6.30
2024-01-16T10:57:28.516Z,6.33
2024-01-16T10:59:00.139Z,6.36
2024-01-16T11:00:32.366Z,6.38
2024-01-16T11:02:04.032Z,6.37
2024-01-16T11:03:38.455Z,6.38
2024-01-16T11:05:12.699Z,6.43
2024-01-16T11:06:44.550Z,6.52
2024-01-16T11:08:18.470Z,6.59
2024-01-16T11:09:50.229Z,6.66
2024-01-16T11:11:21.922Z,6.72
2024-01-16T11:12:53.586Z,6.80
2024-01-16T11:14:25.580Z,6.86
2024-01-16T11:15:57.204Z,6.92
2024-01-16T11:17:30.540Z,7.09
2024-01-16T11:20:55.839Z,7.60
2024-01-16T11:22:29.819Z,7.97
2024-01-16T11:24:01.767Z,8.26
2024-01-16T11:25:36.801Z,8.56
2024-01-16T11:27:09.409Z,8.90
2024-01-16T11:28:41.112Z,9.13
2024-01-16T11:30:13.845Z,9.43
2024-01-16T11:31:45.653Z,9.73
2024-01-16T11:33:32.566Z,9.96
2024-01-16T11:35:05.634Z,10.12
2024-01-16T11:36:56.622Z,10.19
2024-01-16T11:38:28.588Z,10.13
2024-01-16T11:40:18.140Z,10.06
2024-01-16T11:41:52.790Z,10.04
2024-01-16T11:43:35.411Z,9.93
2024-01-16T11:45:08.679Z,9.86
2024-01-16T11:47:16.055Z,9.75
2024-01-16T11:48:52.026Z,9.70
2024-01-16T11:50:30.573Z,9.67
2024-01-16T11:52:03.552Z,9.66
2024-01-16T11:53:37.698Z,9.58
2024-01-16T11:55:34.196Z,9.54
2024-01-16T11:57:24.452Z,9.55
2024-01-16T11:58:56.128Z,9.58
2024-01-16T12:00:27.775Z,9.57
2024-01-16T12:02:01.139Z,9.49
2024-01-16T12:03:35.678Z,9.35
2024-01-16T12:05:08.348Z,9.17
2024-01-16T12:06:41.704Z,9.03
2024-01-16T12:08:15.097Z,8.93
2024-01-16T12:09:46.634Z,8.86
2024-01-16T12:11:22.590Z,8.84
2024-01-16T12:13:01.275Z,8.80
2024-01-16T12:14:34.795Z,8.69
2024-01-16T12:16:06.626Z,8.64
2024-01-16T12:17:39.139Z,8.59
2024-01-16T12:19:11.334Z,8.47
2024-01-16T12:20:43.192Z,8.34
2024-01-16T12:22:14.903Z,8.21
2024-01-16T12:23:53.051Z,8.06
2024-01-16T12:26:00.349Z,8.01
2024-01-16T12:27:24.636Z,7.91
2024-01-16T12:28:59.796Z,7.82
2024-01-16T12:30:35.670Z,7.79
2024-01-16T12:32:13.248Z,7.83
2024-01-16T12:33:51.895Z,7.85
2024-01-16T12:35:30.089Z,7.85
2024-01-16T12:37:08.156Z,7.84
2024-01-16T12:38:40.828Z,7.88
2024-01-16T12:40:15.861Z,7.93
2024-01-16T12:41:47.933Z,7.95
2024-01-16T12:43:19.741Z,7.98
2024-01-16T12:44:51.472Z,8.00
2024-01-16T12:46:23.048Z,8.02
2024-01-16T12:47:55.201Z,8.02
2024-01-16T12:49:26.973Z,8.06
2024-01-16T12:51:04.719Z,8.00
2024-01-16T12:52:37.484Z,7.99
2024-01-16T12:54:16.395Z,8.00
2024-01-16T12:55:48.313Z,8.05
2024-01-16T12:57:21.319Z,8.12
2024-01-16T12:58:53.585Z,8.12
2024-01-16T13:00:25.860Z,8.12
2024-01-16T13:01:57.438Z,8.17
2024-01-16T13:03:29.063Z,8.23
2024-01-16T13:05:01.606Z,8.30
2024-01-16T13:06:33.676Z,8.31
2024-01-16T13:08:05.782Z,8.33
2024-01-16T13:09:38.156Z,8.34
2024-01-16T13:11:11.510Z,8.38
2024-01-16T13:12:43.355Z,8.45
2024-01-16T13:14:15.128Z,8.48
2024-01-16T13:15:46.734Z,8.51
2024-01-16T13:17:18.565Z,8.52
2024-01-16T13:18:50.155Z,8.48
2024-01-16T13:20:21.783Z,8.42
2024-01-16T13:21:53.461Z,8.38
2024-01-16T13:23:28.433Z,8.36
2024-01-16T13:25:08.576Z,8.39
2024-01-16T13:26:41.123Z,8.36
2024-01-16T13:28:13.189Z,8.37
2024-01-16T13:29:46.003Z,8.30
2024-01-16T13:31:17.609Z,8.25
2024-01-16T13:32:49.297Z,8.29
2024-01-16T13:34:24.421Z,8.30
2024-01-16T13:35:57.949Z,8.27
2024-01-16T13:37:29.637Z,8.26
2024-01-16T13:39:01.277Z,8.23
2024-01-16T13:40:33.289Z,8.18
2024-01-16T13:42:08.196Z,8.09
2024-01-16T13:43:39.968Z,7.99
2024-01-16T13:45:14.936Z,7.95
2024-01-16T13:46:57.952Z,7.89
2024-01-16T13:48:38.481Z,7.88
2024-01-16T13:50:10.699Z,7.84
2024-01-16T13:51:44.732Z,7.83
2024-01-16T13:53:16.434Z,7.90
2024-01-16T13:54:48.060Z,7.95
2024-01-16T13:56:29.359Z,7.96
2024-01-16T13:58:11.921Z,7.95
2024-01-16T13:59:43.480Z,7.92
2024-01-16T14:01:15.155Z,7.87
2024-01-16T14:02:47.781Z,7.74
2024-01-16T14:04:19.686Z,7.65
2024-01-16T14:05:51.386Z,7.52
2024-01-16T14:07:23.529Z,7.46
2024-01-16T14:08:55.200Z,7.46
2024-01-16T14:10:26.886Z,7.41
2024-01-16T14:11:58.465Z,7.39
2024-01-16T14:13:31.018Z,7.37
2024-01-16T14:15:05.581Z,7.32
2024-01-16T14:16:48.137Z,7.24
2024-01-16T14:18:24.442Z,7.16
2024-01-16T14:19:56.199Z,7.14
2024-01-16T14:21:27.794Z,7.10
2024-01-16T14:23:00.110Z,7.10
2024-01-16T14:24:31.665Z,7.11
2024-01-16T14:26:04.347Z,7.08
2024-01-16T14:27:35.949Z,7.02
2024-01-16T14:29:07.669Z,7.01
2024-01-16T14:30:42.143Z,6.98
2024-01-16T14:32:15.758Z,6.95
2024-01-16T14:33:47.530Z,6.94
2024-01-16T14:35:21.047Z,6.90
2024-01-16T14:36:52.873Z,6.84
2024-01-16T14:38:24.403Z,6.82
2024-01-16T14:39:56.090Z,6.80
2024-01-16T14:41:28.001Z,6.76
2024-01-16T14:43:00.290Z,6.74
2024-01-16T14:44:32.041Z,6.74
2024-01-16T14:46:04.839Z,6.73
2024-01-16T14:47:36.708Z,6.71
2024-01-16T14:49:09.055Z,6.71
2024-01-16T14:50:40.818Z,6.66
2024-01-16T14:52:13.664Z,6.59
2024-01-16T14:53:45.729Z,6.56
2024-01-16T14:55:17.360Z,6.53
2024-01-16T14:56:50.226Z,6.53
2024-01-16T14:58:24.229Z,6.57
2024-01-16T14:59:55.926Z,6.60
2024-01-16T15:01:28.188Z,6.62
2024-01-16T15:02:59.970Z,6.63
2024-01-16T15:04:32.434Z,6.63
2024-01-16T15:06:06.276Z,6.64
2024-01-16T15:07:40.465Z,6.60
2024-01-16T15:09:19.641Z,6.54
2024-01-16T15:10:51.427Z,6.48
2024-01-16T15:12:22.968Z,6.41
2024-01-16T15:13:56.049Z,6.35
2024-01-16T15:15:27.901Z,6.34
2024-01-16T15:16:59.635Z,6.32
2024-01-16T15:18:31.359Z,6.33
2024-01-16T15:20:04.593Z,6.35
2024-01-16T15:21:38.135Z,6.33
2024-01-16T15:23:09.911Z,6.34
2024-01-16T15:24:41.967Z,6.32
2024-01-16T15:26:20.205Z,6.27
2024-01-16T15:27:54.944Z,6.22
2024-01-16T15:29:30.657Z,6.15
2024-01-16T15:31:08.889Z,6.09
2024-01-16T15:32:40.815Z,6.03
2024-01-16T15:34:15.899Z,5.98
2024-01-16T15:35:49.078Z,5.96
2024-01-16T15:37:20.735Z,5.88
2024-01-16T15:38:52.280Z,5.77
2024-01-16T15:40:24.499Z,5.62
2024-01-16T15:41:56.130Z,5.43
2024-01-16T15:43:27.818Z,5.34
2024-01-16T15:45:00.068Z,5.31
2024-01-16T15:46:31.769Z,5.27
2024-01-16T15:48:03.702Z,5.19
2024-01-16T15:49:36.768Z,5.14
2024-01-16T15:51:10.517Z,5.08
2024-01-16T15:52:42.594Z,5.09
2024-01-16T15:54:14.154Z,5.07
2024-01-16T15:55:45.734Z,5.02
2024-01-16T15:57:17.715Z,4.97
2024-01-16T15:58:50.612Z,4.94
2024-01-16T16:00:24.269Z,4.91
2024-01-16T16:01:55.813Z,4.91
2024-01-16T16:03:27.616Z,4.89
2024-01-16T16:04:59.316Z,4.89
2024-01-16T16:06:30.950Z,4.86
2024-01-16T16:08:02.888Z,4.83
2024-01-16T16:09:35.346Z,4.73
2024-01-16T16:11:07.081Z,4.63
2024-01-16T16:12:39.069Z,4.58
2024-01-16T16:14:10.883Z,4.57
2024-01-16T16:15:42.788Z,4.62
2024-01-16T16:17:14.377Z,4.65
2024-01-16T16:18:47.205Z,4.71
2024-01-16T16:20:20.831Z,4.74
2024-01-16T16:21:53.910Z,4.72
2024-01-16T16:23:26.079Z,4.69
2024-01-16T16:24:58.774Z,4.66
2024-01-16T16:26:30.481Z,4.64
2024-01-16T16:28:03.162Z,4.64
2024-01-16T16:29:34.870Z,4.65
2024-01-16T16:31:06.579Z,4.59
2024-01-16T16:32:38.555Z,4.47
2024-01-16T16:34:16.285Z,4.40
2024-01-16T16:35:48.528Z,4.35
2024-01-16T16:37:20.523Z,4.29
2024-01-16T16:38:52.153Z,4.27
2024-01-16T16:40:23.954Z,4.28
2024-01-16T16:41:55.703Z,4.31
2024-01-16T16:43:27.274Z,4.33
2024-01-16T16:45:00.416Z,4.38
2024-01-16T16:46:32.202Z,4.42
2024-01-16T16:48:04.098Z,4.46
2024-01-16T16:49:36.584Z,4.45
2024-01-16T16:51:09.041Z,4.44
2024-01-16T16:52:40.590Z,4.43
2024-01-16T16:54:13.224Z,4.36
2024-01-16T16:55:44.879Z,4.28
2024-01-16T16:57:16.453Z,4.21
2024-01-16T16:58:48.747Z,4.16
2024-01-16T17:00:20.654Z,4.14
2024-01-16T17:01:53.333Z,4.11
2024-01-16T17:03:25.046Z,4.06
2024-01-16T17:04:56.923Z,3.94
2024-01-16T17:06:28.710Z,3.84
2024-01-16T17:08:00.351Z,3.82
2024-01-16T17:09:31.911Z,3.83
2024-01-16T17:11:05.016Z,3.83
2024-01-16T17:12:36.620Z,3.82
2024-01-16T17:14:08.701Z,3.81
2024-01-16T17:15:40.421Z,3.81
2024-01-16T17:17:12.369Z,3.79
2024-01-16T17:18:44.119Z,3.79
2024-01-16T17:20:15.879Z,3.74
2024-01-16T17:21:47.605Z,3.70
2024-01-16T17:23:19.725Z,3.64
2024-01-16T17:24:51.314Z,3.64
2024-01-16T17:26:23.372Z,3.61
2024-01-16T17:27:55.724Z,3.56
2024-01-16T17:29:27.300Z,3.54
2024-01-16T17:31:03.226Z,3.50
2024-01-16T17:32:35.036Z,3.48
2024-01-16T17:34:07.048Z,3.47
2024-01-16T17:35:39.247Z,3.47
2024-01-16T17:37:10.823Z,3.46
2024-01-16T17:38:43.325Z,3.45
2024-01-16T17:40:15.036Z,3.34
2024-01-16T17:41:47.046Z,3.28
2024-01-16T17:43:19.031Z,3.27
2024-01-16T17:44:50.814Z,3.32
2024-01-16T17:46:23.363Z,3.33
2024-01-16T17:47:54.972Z,3.34
2024-01-16T17:49:26.790Z,3.32
2024-01-16T17:50:58.465Z,3.28
2024-01-16T17:52:32.674Z,3.28
2024-01-16T17:54:04.892Z,3.29
2024-01-16T17:55:37.113Z,3.27
2024-01-16T17:57:09.017Z,3.23
2024-01-16T17:58:40.758Z,3.23
2024-01-16T18:00:12.577Z,3.20
2024-01-16T18:01:44.164Z,3.20
2024-01-16T18:03:27.817Z,3.18
2024-01-16T18:05:17.810Z,3.17
2024-01-16T18:06:50.503Z,3.13
2024-01-16T18:08:23.761Z,3.12
2024-01-16T18:09:55.472Z,3.06
2024-01-16T18:11:27.554Z,3.05
2024-01-16T18:12:59.294Z,3.01
2024-01-16T18:26:58.937Z,2.93
2024-01-16T18:28:30.910Z,2.93
2024-01-16T18:30:02.610Z,2.93
2024-01-16T18:31:35.361Z,2.93
2024-01-16T18:33:07.420Z,2.90
2024-01-16T18:34:39.658Z,2.88
2024-01-16T18:36:11.831Z,2.81
2024-01-16T18:37:44.006Z,2.77
2024-01-16T18:39:16.984Z,2.74
2024-01-16T18:40:49.081Z,2.74
2024-01-16T18:42:23.722Z,2.72
2024-01-16T18:43:55.387Z,2.74
2024-01-16T18:45:27.464Z,2.76
2024-01-16T18:46:59.049Z,2.75
2024-01-16T18:48:31.242Z,2.74
2024-01-16T18:50:06.674Z,2.72
2024-01-16T18:51:38.322Z,2.69
2024-01-16T18:53:09.957Z,2.71
2024-01-16T18:54:41.523Z,2.70
2024-01-16T19:09:54.340Z,2.38
2024-01-16T19:11:25.986Z,2.42
2024-01-16T19:12:57.594Z,2.47
2024-01-16T19:14:29.347Z,2.51
2024-01-16T19:16:01.861Z,2.52
2024-01-16T19:17:35.297Z,2.60
2024-01-16T19:19:08.440Z,2.69
2024-01-16T19:20:40.350Z,2.71
2024-01-16T19:22:11.957Z,2.74
2024-01-16T19:23:44.172Z,2.77
2024-01-16T19:25:17.715Z,2.78
2024-01-16T19:26:49.693Z,2.78
2024-01-16T19:28:21.625Z,2.78
2024-01-16T19:29:53.240Z,2.80
2024-01-16T19:31:24.878Z,2.83
2024-01-16T19:32:57.686Z,2.82
2024-01-16T19:34:29.473Z,2.82
2024-01-16T19:36:02.792Z,2.81
2024-01-16T19:37:35.502Z,2.79
2024-01-16T19:39:16.273Z,2.80
2024-01-16T19:40:47.955Z,2.84
2024-01-16T19:42:20.458Z,2.89
2024-01-16T19:56:00.323Z,2.44
2024-01-16T19:57:32.045Z,2.42
2024-01-16T19:59:05.902Z,2.44
2024-01-16T20:00:41.805Z,2.41
2024-01-16T20:02:14.431Z,2.42
2024-01-16T20:03:46.097Z,2.38
2024-01-16T20:05:18.185Z,2.35
2024-01-16T20:06:53.302Z,2.33
2024-01-16T20:08:27.534Z,2.35
2024-01-16T20:09:59.913Z,2.38
2024-01-16T20:11:31.950Z,2.40
2024-01-16T20:13:05.174Z,2.37
2024-01-16T20:14:38.504Z,2.30
2024-01-16T20:16:10.147Z,2.23
2024-01-16T20:17:42.426Z,2.21
2024-01-16T20:19:14.610Z,2.20
2024-01-16T20:20:47.393Z,2.18
2024-01-16T20:22:19.580Z,2.20
2024-01-16T20:23:51.170Z,2.15
2024-01-16T20:25:25.080Z,2.14
2024-01-16T20:26:56.783Z,2.07
2024-01-16T20:28:28.313Z,2.07
2024-01-16T20:30:00.055Z,2.07
2024-01-16T20:31:33.174Z,2.07
2024-01-16T20:33:05.232Z,2.04
2024-01-16T20:34:37.366Z,2.00
2024-01-16T20:36:13.002Z,1.99
2024-01-16T20:37:44.739Z,1.99
2024-01-16T20:39:16.499Z,1.99
2024-01-16T20:40:48.961Z,1.97
2024-01-16T20:42:22.875Z,1.95
2024-01-16T20:43:55.751Z,1.93
2024-01-16T20:45:28.444Z,1.92
2024-01-16T20:47:01.622Z,1.90
2024-01-16T20:48:34.163Z,1.91
2024-01-16T20:50:07.405Z,1.90
2024-01-16T20:51:39.046Z,1.84
2024-01-16T20:53:11.266Z,1.79
2024-01-16T20:54:43.596Z,1.78
2024-01-16T20:56:16.460Z,1.78
2024-01-16T20:57:51.541Z,1.77
2024-01-16T20:59:25.714Z,1.79
2024-01-16T21:00:57.324Z,1.77
2024-01-16T21:02:28.906Z,1.76
2024-01-16T21:04:00.758Z,1.82
2024-01-16T21:05:32.680Z,1.80
2024-01-16T21:07:05.206Z,1.77
2024-01-16T21:08:37.374Z,1.78
2024-01-16T21:10:09.843Z,1.83
2024-01-16T21:11:42.432Z,1.82
2024-01-16T21:13:15.608Z,1.81
2024-01-16T21:14:47.557Z,1.73